Time;durP1;ratioP1;P1;durP2;ratioP2;P2;SDS_P1;SDS_P2;PMS_P1;PMS_P2;Temp;Humidity;BMP_temperature;BMP_pressure;BME280_temperature;BME280_humidity;BME280_pressure;Samples;Min_cycle;Max_cycle;Signal;HPM_P1;HPM_P2
2022/11/14 00:02:18;;;;;;;16.70;11.77;;;6.20;99.90;6.10;101225.00;;;;4881495;28;93839;-64
2022/11/14 00:04:48;;;;;;;17.93;11.67;;;6.20;99.90;6.10;101217.00;;;;4879142;28;93711;-63
2022/11/14 00:07:14;;;;;;;19.17;11.67;;;6.20;99.90;6.10;101218.00;;;;4881395;28;93293;-63
2022/11/14 00:09:41;;;;;;;16.97;11.13;;;6.20;99.90;6.10;101215.00;;;;4882785;28;93003;-64
2022/11/14 00:12:09;;;;;;;16.93;11.60;;;6.20;99.90;6.10;101207.00;;;;4883241;28;93884;-63
2022/11/14 00:14:35;;;;;;;14.23;10.63;;;6.20;99.90;6.00;101219.00;;;;4880638;28;111672;-65
2022/11/14 00:17:01;;;;;;;17.50;11.27;;;6.10;99.90;6.00;101216.00;;;;4876972;28;106624;-64
2022/11/14 00:19:27;;;;;;;38.20;11.93;;;6.20;99.90;6.00;101208.00;;;;4878565;28;100689;-63
2022/11/14 00:21:53;;;;;;;16.57;10.97;;;6.10;99.90;6.00;101208.00;;;;4877384;28;121273;-64
2022/11/14 00:24:19;;;;;;;16.80;10.80;;;6.10;99.90;5.90;101205.00;;;;4878055;28;104778;-62
2022/11/14 00:26:45;;;;;;;16.97;10.43;;;6.10;99.90;5.90;101208.00;;;;4879831;28;98544;-64
2022/11/14 00:29:13;;;;;;;15.97;11.23;;;6.00;99.90;5.80;101218.00;;;;4878839;28;108313;-64
2022/11/14 00:31:39;;;;;;;18.67;11.27;;;6.00;99.90;5.80;101204.00;;;;4876522;28;112917;-63
2022/11/14 00:34:05;;;;;;;16.23;10.97;;;6.00;99.90;5.80;101199.00;;;;4880460;28;121427;-64
2022/11/14 00:36:31;;;;;;;18.00;11.43;;;5.90;99.90;5.70;101198.00;;;;4878700;28;113186;-63
2022/11/14 00:38:57;;;;;;;20.67;10.70;;;5.90;99.90;5.60;101189.00;;;;4878445;28;110184;-64
2022/11/14 00:41:22;;;;;;;16.50;10.97;;;5.80;99.90;5.50;101194.00;;;;4877185;28;121706;-63
2022/11/14 00:43:48;;;;;;;18.77;11.00;;;6.10;99.90;5.40;101184.00;;;;4880326;28;122953;-64
2022/11/14 00:46:14;;;;;;;14.37;12.73;;;5.60;99.90;5.30;101183.00;;;;4878759;28;113880;-63
2022/11/14 00:48:40;;;;;;;14.37;10.50;;;5.50;99.90;5.20;101184.00;;;;4883347;28;108565;-63
2022/11/14 00:51:06;;;;;;;15.77;10.40;;;5.40;99.90;5.20;101185.00;;;;4879204;28;120255;-63
2022/11/14 00:53:31;;;;;;;17.83;9.67;;;5.80;99.90;5.10;101180.00;;;;4877329;28;122678;-64
2022/11/14 00:55:57;;;;;;;15.77;11.17;;;5.30;99.90;5.10;101179.00;;;;4882926;28;112706;-64
2022/11/14 00:58:23;;;;;;;18.07;11.40;;;5.30;99.90;5.00;101168.00;;;;4881033;28;107921;-64
2022/11/14 01:00:49;;;;;;;21.33;12.33;;;5.20;99.90;5.00;101163.00;;;;4876940;28;122146;-64
2022/11/14 01:03:14;;;;;;;12.57;10.17;;;5.20;99.90;5.00;101167.00;;;;4879222;28;122627;-65
2022/11/14 01:05:46;;;;;;;21.47;11.27;;;5.10;99.90;5.00;101164.00;;;;4884665;28;113934;-64
2022/11/14 01:08:14;;;;;;;15.80;10.33;;;5.10;99.90;5.00;101158.00;;;;4878007;28;92873;-63
2022/11/14 01:10:45;;;;;;;21.47;11.23;;;5.10;99.90;5.00;101154.00;;;;4877028;28;116664;-64
2022/11/14 01:13:12;;;;;;;17.83;10.37;;;5.10;99.90;5.00;101148.00;;;;4880065;28;115566;-64
2022/11/14 01:15:43;;;;;;;18.97;11.53;;;5.10;99.90;5.00;101158.00;;;;4877303;28;98079;-63
2022/11/14 01:18:12;;;;;;;17.23;11.77;;;5.10;99.90;5.00;101151.00;;;;4877782;28;94480;-64
2022/11/14 01:20:42;;;;;;;16.87;10.83;;;5.20;99.90;5.00;101145.00;;;;4876573;28;117371;-63
2022/11/14 01:23:10;;;;;;;20.53;11.50;;;5.20;99.90;5.00;101137.00;;;;4881355;28;94029;-63
2022/11/14 01:25:38;;;;;;;18.07;10.63;;;5.20;99.90;5.00;101119.00;;;;4879392;28;95962;-63
2022/11/14 01:28:17;;;;;;;16.97;10.83;;;5.20;99.90;5.00;101125.00;;;;4880002;28;92815;-63
2022/11/14 01:30:43;;;;;;;15.50;12.53;;;5.20;99.90;5.00;101120.00;;;;4878575;28;93146;-63
2022/11/14 01:33:09;;;;;;;16.67;10.80;;;5.50;99.90;4.90;101117.00;;;;4881533;28;121012;-63
2022/11/14 01:35:36;;;;;;;11.70;9.93;;;5.10;99.90;4.90;101111.00;;;;4883452;28;112551;-63
2022/11/14 01:38:04;;;;;;;17.57;11.63;;;5.10;99.90;4.80;101099.00;;;;4877164;28;92960;-63
2022/11/14 01:40:31;;;;;;;15.70;10.10;;;5.40;99.90;4.80;101096.00;;;;4876417;28;94006;-63
2022/11/14 01:43:15;;;;;;;19.43;10.37;;;5.00;99.90;4.70;101092.00;;;;4875574;28;102013;-62
2022/11/14 01:46:03;;;;;;;13.37;9.13;;;4.90;99.90;4.60;101086.00;;;;4873840;28;113465;-63
2022/11/14 01:48:42;;;;;;;13.17;9.70;;;4.90;99.90;4.60;101085.00;;;;4877721;28;92811;-63
2022/11/14 01:51:28;;;;;;;15.43;11.00;;;4.80;99.90;4.60;101087.00;;;;4878761;28;104919;-64
2022/11/14 01:53:57;;;;;;;15.33;10.50;;;4.90;99.90;4.60;101069.00;;;;4889665;28;93482;-63
2022/11/14 01:56:31;;;;;;;13.33;10.37;;;4.80;99.90;4.60;101065.00;;;;4877337;28;93116;-63
2022/11/14 01:59:12;;;;;;;13.67;9.77;;;4.70;99.90;4.50;101074.00;;;;4874368;28;102914;-63
2022/11/14 02:01:45;;;;;;;19.90;10.07;;;4.70;99.90;4.50;101079.00;;;;4880472;28;115998;-63
2022/11/14 02:04:18;;;;;;;18.43;11.70;;;5.30;99.90;4.50;101072.00;;;;4875649;28;103144;-64
2022/11/14 02:06:45;;;;;;;17.00;11.43;;;4.70;99.90;4.50;101067.00;;;;4874673;28;93264;-63
2022/11/14 02:09:12;;;;;;;15.37;11.57;;;4.70;99.90;4.40;101071.00;;;;4879218;28;107593;-63
2022/11/14 02:11:43;;;;;;;11.97;9.57;;;4.60;99.90;4.40;101063.00;;;;4876402;28;111912;-62
2022/11/14 02:14:10;;;;;;;15.40;10.17;;;4.60;99.90;4.30;101060.00;;;;4891934;28;93790;-64
2022/11/14 02:16:38;;;;;;;15.43;10.20;;;4.50;99.90;4.30;101054.00;;;;4877356;28;109530;-64
2022/11/14 02:19:04;;;;;;;13.90;10.43;;;4.50;99.90;4.20;101058.00;;;;4893389;28;92772;-63
2022/11/14 02:21:30;;;;;;;17.63;10.77;;;4.50;99.90;4.20;101047.00;;;;4875775;28;123571;-62
2022/11/14 02:23:56;;;;;;;15.70;10.60;;;4.40;99.90;4.20;101040.00;;;;4879582;28;121431;-63
2022/11/14 02:26:22;;;;;;;13.80;10.30;;;4.40;99.90;4.20;101033.00;;;;4876673;28;113079;-62
2022/11/14 02:28:48;;;;;;;14.30;10.67;;;4.40;99.90;4.10;101044.00;;;;4878520;28;108463;-62
2022/11/14 02:31:15;;;;;;;13.70;9.67;;;4.30;99.90;4.10;101038.00;;;;4876103;28;123107;-63
2022/11/14 02:33:41;;;;;;;12.73;10.40;;;4.30;99.90;4.00;101036.00;;;;4876920;28;94226;-63
2022/11/14 02:36:07;;;;;;;16.07;11.07;;;4.30;99.90;4.00;101024.00;;;;4875156;28;110715;-64
2022/11/14 02:38:33;;;;;;;16.07;10.00;;;4.20;99.90;4.00;101026.00;;;;4876696;28;97188;-63
2022/11/14 02:40:59;;;;;;;15.87;12.03;;;4.20;99.90;4.00;101023.00;;;;4879864;28;122872;-64
2022/11/14 02:43:25;;;;;;;16.20;10.27;;;4.20;99.90;3.90;101005.00;;;;4880559;28;105981;-63
2022/11/14 02:45:51;;;;;;;18.13;10.27;;;4.20;99.90;3.90;101012.00;;;;4878281;28;92998;-63
2022/11/14 02:48:17;;;;;;;12.87;9.83;;;4.10;99.90;3.90;101008.00;;;;4877104;28;108014;-62
2022/11/14 02:50:43;;;;;;;13.63;9.27;;;4.10;99.90;3.90;100998.00;;;;4878814;28;121464;-62
2022/11/14 02:53:09;;;;;;;20.63;11.57;;;4.10;99.90;3.90;101015.00;;;;4876183;28;120996;-62
2022/11/14 02:55:34;;;;;;;14.80;10.20;;;4.10;99.90;3.90;101008.00;;;;4880834;28;92876;-62
2022/11/14 02:58:00;;;;;;;17.70;9.53;;;4.10;99.90;3.80;101002.00;;;;4877654;28;108874;-62
2022/11/14 03:00:26;;;;;;;13.40;9.40;;;4.10;99.90;3.80;101010.00;;;;4876541;28;121401;-62
2022/11/14 03:02:54;;;;;;;17.77;10.33;;;4.00;99.90;3.80;101006.00;;;;4876216;28;122863;-64
2022/11/14 03:05:20;;;;;;;20.47;10.20;;;4.00;99.90;3.80;101011.00;;;;4873663;28;92938;-62
2022/11/14 03:07:46;;;;;;;13.97;9.43;;;4.00;99.90;3.70;101012.00;;;;4876490;28;92943;-62
2022/11/14 03:10:12;;;;;;;10.50;9.27;;;4.00;99.90;3.70;101009.00;;;;4876627;28;102818;-61
2022/11/14 03:12:39;;;;;;;12.77;9.73;;;3.90;99.90;3.70;101007.00;;;;4876455;28;93802;-62
2022/11/14 03:15:08;;;;;;;12.10;8.83;;;3.90;99.90;3.60;101005.00;;;;4877629;28;94943;-62
2022/11/14 03:17:34;;;;;;;11.60;9.17;;;3.30;99.90;3.60;101014.00;;;;4875701;28;101190;-61
2022/11/14 03:20:00;;;;;;;12.10;8.97;;;3.80;99.90;3.60;101005.00;;;;4878271;28;94512;-61
2022/11/14 03:22:26;;;;;;;13.03;8.47;;;3.90;99.90;3.60;100998.00;;;;4875760;28;122415;-63
2022/11/14 03:24:52;;;;;;;11.90;8.10;;;3.80;99.90;3.60;101000.00;;;;4880847;28;92921;-62
2022/11/14 03:27:19;;;;;;;10.10;8.97;;;3.80;99.90;3.50;101005.00;;;;4875307;28;92909;-62
2022/11/14 03:29:47;;;;;;;12.33;9.93;;;3.80;99.90;3.60;100999.00;;;;4876234;28;93684;-62
2022/11/14 03:32:12;;;;;;;11.10;9.13;;;3.90;99.90;3.60;100997.00;;;;4876656;28;93626;-61
2022/11/14 03:34:38;;;;;;;11.93;8.43;;;3.80;99.90;3.60;100998.00;;;;4880011;28;111357;-62
2022/11/14 03:37:04;;;;;;;13.87;9.13;;;3.80;99.90;3.60;101001.00;;;;4877467;28;107612;-62
2022/11/14 03:39:29;;;;;;;16.73;9.00;;;3.70;99.90;3.60;100997.00;;;;4881960;28;92424;-63
2022/11/14 03:41:55;;;;;;;12.90;9.90;;;3.80;99.90;3.60;100990.00;;;;4881182;28;122483;-63
2022/11/14 03:44:21;;;;;;;16.10;9.73;;;3.80;99.90;3.60;100986.00;;;;4882333;28;108284;-62
2022/11/14 03:46:47;;;;;;;22.83;9.73;;;3.70;99.90;3.60;100987.00;;;;4880406;28;108669;-62
2022/11/14 03:49:12;;;;;;;13.07;9.23;;;3.80;99.90;3.60;100987.00;;;;4878991;28;121990;-62
2022/11/14 03:51:38;;;;;;;12.93;8.90;;;3.80;99.90;3.60;100992.00;;;;4881886;28;121577;-62
2022/11/14 03:54:03;;;;;;;11.47;8.90;;;3.80;99.90;3.60;100985.00;;;;4883657;28;100431;-64
2022/11/14 03:56:29;;;;;;;10.70;8.60;;;3.80;99.90;3.60;100985.00;;;;4883198;28;108831;-62
2022/11/14 03:58:55;;;;;;;14.37;8.57;;;3.80;99.90;3.60;100990.00;;;;4883388;28;122206;-61
2022/11/14 04:01:20;;;;;;;10.60;8.10;;;3.80;99.90;3.60;100984.00;;;;4885364;28;92946;-63
2022/11/14 04:03:46;;;;;;;16.67;9.90;;;3.80;99.90;3.60;100977.00;;;;4882470;28;108754;-63
2022/11/14 04:06:12;;;;;;;17.47;10.17;;;3.70;99.90;3.60;100980.00;;;;4881435;28;107679;-63
2022/11/14 04:08:40;;;;;;;13.50;8.67;;;3.80;99.90;3.60;100983.00;;;;4879044;28;123416;-63
2022/11/14 04:11:06;;;;;;;12.50;7.80;;;3.80;99.90;3.60;100964.00;;;;4886055;28;93874;-64
2022/11/14 04:13:31;;;;;;;17.67;8.97;;;3.80;99.90;3.60;100967.00;;;;4883094;28;92890;-63
2022/11/14 04:15:58;;;;;;;16.23;9.43;;;3.80;99.90;3.60;100974.00;;;;4880322;28;107406;-64
2022/11/14 04:18:25;;;;;;;10.17;8.03;;;3.80;99.90;3.60;100967.00;;;;4876655;28;108324;-62
2022/11/14 04:20:51;;;;;;;13.70;8.10;;;3.80;99.90;3.60;100969.00;;;;4881890;28;93057;-63
2022/11/14 04:23:18;;;;;;;13.37;8.63;;;3.80;99.90;3.60;100967.00;;;;4881967;28;92928;-62
2022/11/14 04:25:44;;;;;;;11.70;8.00;;;3.80;99.90;3.60;100975.00;;;;4877540;28;92767;-63
2022/11/14 04:28:10;;;;;;;17.30;8.77;;;3.80;99.90;3.60;100969.00;;;;4877433;28;92433;-62
2022/11/14 04:30:36;;;;;;;9.47;7.37;;;3.80;99.90;3.50;100959.00;;;;4880151;28;115858;-63
2022/11/14 04:33:02;;;;;;;16.53;9.73;;;3.80;99.90;3.50;100957.00;;;;4877283;28;109667;-63
2022/11/14 04:35:27;;;;;;;11.40;8.43;;;3.80;99.90;3.50;100955.00;;;;4876769;28;107942;-63
2022/11/14 04:37:53;;;;;;;9.70;6.57;;;3.70;99.90;3.50;100952.00;;;;4876357;28;122447;-61
2022/11/14 04:40:19;;;;;;;12.73;8.87;;;3.70;99.90;3.50;100948.00;;;;4879487;28;121815;-63
2022/11/14 04:42:44;;;;;;;11.10;8.63;;;3.80;99.90;3.50;100942.00;;;;4878003;28;111067;-63
2022/11/14 04:45:10;;;;;;;15.37;10.03;;;3.70;99.90;3.50;100939.00;;;;4878245;28;109137;-63
2022/11/14 04:47:36;;;;;;;11.23;8.47;;;3.70;99.90;3.50;100946.00;;;;4877780;28;123867;-63
2022/11/14 04:50:03;;;;;;;11.30;7.93;;;3.70;99.90;3.50;100938.00;;;;4879720;28;109087;-61
2022/11/14 04:52:28;;;;;;;14.47;8.47;;;3.70;99.90;3.50;100931.00;;;;4880757;28;92125;-65
2022/11/14 04:54:54;;;;;;;12.63;7.90;;;3.70;99.90;3.50;100923.00;;;;4881759;28;109649;-62
2022/11/14 04:57:19;;;;;;;11.33;8.00;;;3.70;99.90;3.50;100931.00;;;;4879911;28;122715;-63
2022/11/14 04:59:45;;;;;;;10.93;6.97;;;3.70;99.90;3.40;100924.00;;;;4882610;28;122151;-60
2022/11/14 05:02:11;;;;;;;13.43;9.50;;;3.70;99.90;3.40;100923.00;;;;4880769;28;110465;-62
2022/11/14 05:04:36;;;;;;;11.10;7.40;;;3.70;99.90;3.40;100926.00;;;;4880325;28;108981;-60
2022/11/14 05:07:03;;;;;;;9.20;8.23;;;3.60;99.90;3.40;100918.00;;;;4880205;28;122955;-61
2022/11/14 05:09:28;;;;;;;11.33;7.90;;;3.60;99.90;3.40;100924.00;;;;4882078;28;92967;-62
2022/11/14 05:11:54;;;;;;;12.57;7.60;;;3.60;99.90;3.40;100927.00;;;;4878245;28;110617;-62
2022/11/14 05:14:19;;;;;;;10.53;7.20;;;3.60;99.90;3.40;100912.00;;;;4881567;28;93008;-62
2022/11/14 05:16:45;;;;;;;12.20;8.17;;;3.60;99.90;3.40;100919.00;;;;4883167;28;120864;-60
2022/11/14 05:19:11;;;;;;;9.17;6.70;;;3.60;99.90;3.40;100917.00;;;;4880073;28;122079;-62
2022/11/14 05:21:36;;;;;;;8.27;6.17;;;3.60;99.90;3.40;100925.00;;;;4877372;28;110452;-62
2022/11/14 05:24:02;;;;;;;10.53;7.50;;;3.60;99.90;3.40;100920.00;;;;4880780;28;108794;-62
2022/11/14 05:26:28;;;;;;;11.20;7.70;;;3.60;99.90;3.40;100912.00;;;;4882792;28;114837;-61
2022/11/14 05:28:54;;;;;;;11.80;7.77;;;3.60;99.90;3.40;100921.00;;;;4880509;28;121100;-61
2022/11/14 05:31:19;;;;;;;10.27;6.80;;;3.60;99.90;3.40;100928.00;;;;4875270;28;108632;-61
2022/11/14 05:33:45;;;;;;;12.03;6.63;;;3.60;99.90;3.40;100913.00;;;;4882331;28;100854;-61
2022/11/14 05:36:14;;;;;;;10.73;6.57;;;3.60;99.90;3.30;100911.00;;;;4878374;28;94292;-62
2022/11/14 05:38:41;;;;;;;10.77;7.30;;;3.50;99.90;3.30;100903.00;;;;4880946;28;92976;-63
2022/11/14 05:41:10;;;;;;;10.97;7.87;;;3.50;99.90;3.30;100904.00;;;;4877218;28;92443;-62
2022/11/14 05:43:36;;;;;;;10.83;6.87;;;3.50;99.90;3.30;100909.00;;;;4879614;28;92921;-63
2022/11/14 05:46:05;;;;;;;9.43;7.43;;;3.50;99.90;3.20;100911.00;;;;4877930;28;100040;-61
2022/11/14 05:48:31;;;;;;;15.57;8.43;;;3.50;99.90;3.20;100916.00;;;;4874994;28;96082;-61
2022/11/14 05:50:59;;;;;;;9.47;6.87;;;3.50;99.90;3.20;100915.00;;;;4875832;28;93070;-62
2022/11/14 05:53:26;;;;;;;11.70;6.87;;;3.40;99.90;3.20;100907.00;;;;4878183;28;102411;-61
2022/11/14 05:55:52;;;;;;;8.13;7.03;;;3.40;99.90;3.20;100905.00;;;;4875360;28;117531;-63
2022/11/14 05:58:18;;;;;;;9.23;6.80;;;3.40;99.90;3.10;100914.00;;;;4873104;28;94948;-62
2022/11/14 06:00:44;;;;;;;8.53;7.23;;;3.40;99.90;3.10;100898.00;;;;4876594;28;109757;-59
2022/11/14 06:03:10;;;;;;;13.00;7.30;;;3.30;99.90;3.10;100907.00;;;;4878653;28;108212;-62
2022/11/14 06:05:36;;;;;;;13.93;7.57;;;3.30;99.90;3.10;100911.00;;;;4881051;28;92905;-61
2022/11/14 06:08:02;;;;;;;14.30;7.40;;;3.30;99.90;3.10;100922.00;;;;4881227;28;92921;-62
2022/11/14 06:10:28;;;;;;;12.90;8.07;;;3.30;99.90;3.10;100915.00;;;;4878688;28;101836;-63
2022/11/14 06:12:54;;;;;;;8.60;7.03;;;3.30;99.90;3.10;100921.00;;;;4879765;28;93940;-62
2022/11/14 06:15:20;;;;;;;8.87;6.77;;;3.30;99.90;3.00;100910.00;;;;4879518;28;123632;-62
2022/11/14 06:17:46;;;;;;;9.20;7.53;;;3.30;99.90;3.00;100912.00;;;;4879049;28;120528;-61
2022/11/14 06:20:12;;;;;;;11.50;8.20;;;3.30;99.90;3.00;100921.00;;;;4878132;28;110376;-62
2022/11/14 06:22:41;;;;;;;11.53;6.53;;;3.30;99.90;3.00;100924.00;;;;4876583;28;93024;-62
2022/11/14 06:25:08;;;;;;;9.83;6.17;;;3.20;99.90;3.00;100924.00;;;;4878061;28;123699;-61
2022/11/14 06:27:34;;;;;;;11.03;7.33;;;3.30;99.90;3.00;100930.00;;;;4876315;28;110978;-63
2022/11/14 06:30:00;;;;;;;7.93;6.97;;;3.30;99.90;3.00;100929.00;;;;4880741;28;92283;-61
2022/11/14 06:32:25;;;;;;;9.57;7.43;;;3.20;99.90;3.00;100932.00;;;;4876282;28;108326;-63
2022/11/14 06:34:51;;;;;;;7.53;6.63;;;3.20;99.90;3.00;100942.00;;;;4877103;28;123491;-61
2022/11/14 06:37:16;;;;;;;10.37;8.00;;;3.20;99.90;3.00;100942.00;;;;4876112;28;121514;-62
2022/11/14 06:39:42;;;;;;;16.10;8.63;;;3.20;99.90;3.00;100935.00;;;;4877235;28;108870;-61
2022/11/14 06:42:08;;;;;;;11.37;7.33;;;3.30;99.90;3.00;100946.00;;;;4877238;28;108440;-63
2022/11/14 06:44:33;;;;;;;7.70;6.93;;;3.30;99.90;3.00;100955.00;;;;4876116;28;122198;-62
2022/11/14 06:46:59;;;;;;;11.23;7.83;;;3.30;99.90;3.10;100957.00;;;;4882020;28;123431;-62
2022/11/14 06:49:26;;;;;;;11.93;7.93;;;3.30;99.90;3.10;100947.00;;;;4878675;28;111252;-61
2022/11/14 06:51:52;;;;;;;11.87;9.27;;;3.30;99.90;3.20;100953.00;;;;4879163;28;92870;-62
2022/11/14 06:54:18;;;;;;;13.27;8.13;;;3.40;99.90;3.30;100953.00;;;;4876883;28;116060;-62
2022/11/14 06:56:44;;;;;;;16.30;10.00;;;3.50;99.90;3.50;100958.00;;;;4879835;28;121863;-61
2022/11/14 06:59:09;;;;;;;12.13;8.17;;;3.60;99.90;3.60;100946.00;;;;4877686;28;103123;-63
2022/11/14 07:01:35;;;;;;;11.07;8.17;;;3.70;99.90;3.70;100933.00;;;;4880572;28;94023;-62
2022/11/14 07:04:01;;;;;;;9.90;7.77;;;3.90;99.90;3.80;100944.00;;;;4875670;28;122649;-62
2022/11/14 07:06:29;;;;;;;13.03;9.83;;;4.00;99.90;4.00;100938.00;;;;4881541;28;93975;-60
2022/11/14 07:08:56;;;;;;;14.53;9.03;;;4.10;99.90;4.10;100936.00;;;;4874828;28;99511;-61
2022/11/14 07:11:26;;;;;;;13.73;8.83;;;4.20;99.90;4.30;100936.00;;;;4876844;28;96758;-62
2022/11/14 07:14:02;;;;;;;9.67;7.40;;;4.40;99.90;4.40;100937.00;;;;4878362;28;93243;-61
2022/11/14 07:16:32;;;;;;;9.63;7.23;;;4.50;99.90;4.60;100943.00;;;;4879352;28;93507;-62
2022/11/14 07:18:58;;;;;;;9.20;7.63;;;4.70;99.90;4.70;100947.00;;;;4877541;28;93424;-63
2022/11/14 07:21:25;;;;;;;11.33;7.03;;;4.90;99.90;4.90;100943.00;;;;4876354;28;92805;-63
2022/11/14 07:23:52;;;;;;;9.53;6.83;;;4.90;99.90;5.00;100948.00;;;;4878071;28;109156;-62
2022/11/14 07:26:17;;;;;;;9.60;7.20;;;5.00;99.90;5.10;100932.00;;;;4876963;28;94028;-63
2022/11/14 07:28:44;;;;;;;7.23;6.20;;;5.80;99.90;5.30;100942.00;;;;4876121;28;109198;-63
2022/11/14 07:31:13;;;;;;;8.77;6.07;;;5.40;99.90;5.40;100930.00;;;;4878522;28;108342;-62
2022/11/14 07:33:40;;;;;;;10.50;6.33;;;5.50;99.90;5.60;100942.00;;;;4879823;28;94212;-63
2022/11/14 07:36:07;;;;;;;10.33;7.27;;;5.60;99.90;5.80;100955.00;;;;4876874;28;94408;-63
2022/11/14 07:38:34;;;;;;;10.17;6.60;;;5.80;99.90;5.90;100944.00;;;;4879343;28;96484;-63
2022/11/14 07:41:02;;;;;;;10.23;6.73;;;6.00;99.90;6.10;100935.00;;;;4878207;28;104647;-64
2022/11/14 07:43:28;;;;;;;9.23;6.20;;;6.10;99.90;6.30;100940.00;;;;4882212;28;92140;-63
2022/11/14 07:46:01;;;;;;;7.83;6.50;;;6.30;99.90;6.50;100939.00;;;;4877282;28;122398;-63
2022/11/14 07:48:28;;;;;;;8.60;5.53;;;6.50;99.90;6.70;100944.00;;;;4876871;28;100957;-63
2022/11/14 07:51:01;;;;;;;8.97;6.97;;;6.80;99.90;7.00;100940.00;;;;4877774;28;96680;-63
2022/11/14 07:53:28;;;;;;;8.77;5.47;;;6.90;99.90;7.10;100942.00;;;;4880962;28;113416;-63
2022/11/14 07:55:55;;;;;;;10.37;6.03;;;7.50;99.90;7.40;100941.00;;;;4876575;28;93790;-63
2022/11/14 07:58:21;;;;;;;9.40;6.23;;;7.70;99.90;7.50;100936.00;;;;4876901;28;92953;-63
2022/11/14 08:00:46;;;;;;;7.90;5.57;;;7.50;99.90;7.70;100927.00;;;;4880030;28;109854;-64
2022/11/14 08:03:12;;;;;;;6.60;5.00;;;8.10;99.90;7.80;100927.00;;;;4882668;28;93261;-63
2022/11/14 08:05:38;;;;;;;10.07;6.33;;;8.00;99.90;7.80;100929.00;;;;4877157;28;93027;-64
2022/11/14 08:08:04;;;;;;;9.60;7.07;;;8.10;99.90;8.00;100925.00;;;;4877131;28;109323;-63
2022/11/14 08:10:29;;;;;;;6.30;5.33;;;8.00;99.90;8.10;100926.00;;;;4882024;28;92950;-63
2022/11/14 08:13:00;;;;;;;9.50;6.37;;;8.00;99.90;8.30;100918.00;;;;4881409;28;122902;-63
2022/11/14 08:15:26;;;;;;;10.73;5.43;;;8.20;99.90;8.50;100932.00;;;;4878297;28;93892;-63
2022/11/14 08:17:56;;;;;;;8.53;6.47;;;8.50;99.90;8.70;100921.00;;;;4876950;28;92766;-63
2022/11/14 08:20:21;;;;;;;7.67;6.07;;;8.60;99.90;8.80;100926.00;;;;4882728;28;102661;-63
2022/11/14 08:22:47;;;;;;;7.53;5.80;;;8.70;99.90;9.00;100920.00;;;;4882559;28;122477;-63
2022/11/14 08:25:13;;;;;;;11.17;6.30;;;8.90;99.90;9.00;100914.00;;;;4878799;28;122512;-63
2022/11/14 08:27:38;;;;;;;9.07;6.43;;;9.00;99.90;9.20;100922.00;;;;4878862;28;110558;-63
2022/11/14 08:30:05;;;;;;;8.20;5.57;;;9.20;99.90;9.50;100917.00;;;;4886164;28;100953;-64
2022/11/14 08:32:30;;;;;;;14.90;5.77;;;9.10;99.90;9.70;100918.00;;;;4881491;28;92817;-63
2022/11/14 08:34:56;;;;;;;7.60;5.00;;;9.60;99.90;9.90;100909.00;;;;4879136;28;122563;-63
2022/11/14 08:37:22;;;;;;;11.43;5.57;;;9.80;99.90;10.20;100908.00;;;;4877013;28;92869;-63
2022/11/14 08:39:47;;;;;;;7.67;5.07;;;10.10;99.90;10.40;100901.00;;;;4877401;28;108457;-63
2022/11/14 08:42:13;;;;;;;8.63;5.30;;;10.30;99.90;10.70;100909.00;;;;4876492;28;122286;-65
2022/11/14 08:44:38;;;;;;;10.87;5.83;;;10.50;99.90;10.90;100910.00;;;;4877306;28;121387;-63
2022/11/14 08:47:04;;;;;;;7.43;4.50;;;10.70;99.90;11.10;100914.00;;;;4879792;28;111583;-63
2022/11/14 08:49:30;;;;;;;9.40;5.43;;;11.00;99.90;11.20;100933.00;;;;4877256;28;107978;-63
2022/11/14 08:51:55;;;;;;;8.30;4.93;;;11.10;99.90;11.40;100928.00;;;;4877864;28;121263;-63
2022/11/14 08:54:21;;;;;;;7.40;5.67;;;11.20;99.90;11.70;100929.00;;;;4878773;28;122591;-64
2022/11/14 08:56:47;;;;;;;6.87;5.00;;;11.50;99.90;11.80;100930.00;;;;4883280;28;109245;-63
2022/11/14 08:59:13;;;;;;;7.93;5.87;;;11.60;99.90;11.80;100921.00;;;;4880180;28;108695;-64
2022/11/14 09:01:39;;;;;;;5.23;4.40;;;11.70;99.90;11.90;100924.00;;;;4880494;28;117985;-64
2022/11/14 09:04:04;;;;;;;6.77;4.63;;;11.80;99.90;12.00;100919.00;;;;4882283;28;120298;-64
2022/11/14 09:06:31;;;;;;;6.00;5.00;;;11.90;99.90;12.10;100914.00;;;;4885801;28;111106;-64
2022/11/14 09:08:57;;;;;;;9.57;5.03;;;12.00;99.90;12.20;100920.00;;;;4879059;28;108987;-64
2022/11/14 09:11:23;;;;;;;10.43;4.83;;;12.10;99.90;12.30;100923.00;;;;4879645;28;97277;-65
2022/11/14 09:13:48;;;;;;;8.13;5.37;;;12.20;99.90;12.30;100921.00;;;;4885152;28;101808;-64
2022/11/14 09:16:14;;;;;;;8.30;4.77;;;12.20;99.90;12.40;100911.00;;;;4883511;28;110262;-64
2022/11/14 09:18:39;;;;;;;5.20;4.10;;;12.20;99.90;12.50;100897.00;;;;4880400;28;109008;-65
2022/11/14 09:21:07;;;;;;;6.60;4.53;;;12.30;99.90;12.60;100891.00;;;;4882429;28;113682;-64
2022/11/14 09:23:34;;;;;;;8.33;5.50;;;12.40;99.90;12.70;100879.00;;;;4888134;28;93121;-64
2022/11/14 09:26:08;;;;;;;7.47;4.70;;;12.50;99.90;12.90;100869.00;;;;4883236;28;98075;-64
2022/11/14 09:28:35;;;;;;;8.23;4.17;;;12.70;99.90;13.20;100878.00;;;;4882063;28;102989;-64
2022/11/14 09:31:10;;;;;;;6.17;4.70;;;12.90;99.90;13.50;100883.00;;;;4880695;28;104962;-64
2022/11/14 09:33:36;;;;;;;8.43;4.90;;;13.20;99.90;13.80;100877.00;;;;4883247;28;92979;-64
2022/11/14 09:36:06;;;;;;;8.20;4.97;;;13.50;99.90;14.00;100881.00;;;;4883844;28;109931;-64
2022/11/14 09:38:32;;;;;;;6.10;4.70;;;13.70;99.90;14.20;100879.00;;;;4881309;28;92923;-65
2022/11/14 09:41:07;;;;;;;7.17;4.53;;;13.90;99.90;14.40;100891.00;;;;4878436;28;105345;-64
2022/11/14 09:44:05;;;;;;;12.73;5.17;;;14.10;99.90;14.70;100895.00;;;;4879203;28;107986;-64
2022/11/14 09:46:38;;;;;;;12.40;5.10;;;14.60;99.90;15.00;100893.00;;;;4878725;28;92164;-65
2022/11/14 09:49:36;;;;;;;6.97;5.33;;;14.70;99.90;15.20;100894.00;;;;4893531;28;102098;-64
2022/11/14 09:52:27;;;;;;;7.43;5.03;;;14.90;99.70;15.30;100888.00;;;;4876467;28;94407;-65
2022/11/14 09:55:00;;;;;;;5.33;3.50;;;15.00;98.40;15.50;100892.00;;;;4892880;28;94183;-65
2022/11/14 09:57:26;;;;;;;7.30;4.33;;;15.20;99.20;15.80;100895.00;;;;4880687;28;92853;-64
2022/11/14 09:59:52;;;;;;;6.32;4.55;;;15.50;99.10;16.00;100879.00;;;;4877133;28;109524;-65
2022/11/14 10:02:53;;;;;;;6.03;4.22;;;15.70;98.00;16.10;100894.00;;;;4891516;28;122993;-64
2022/11/14 10:05:49;;;;;;;5.43;4.35;;;15.80;97.10;16.00;100885.00;;;;4877482;28;93083;-65
2022/11/14 10:08:59;;;;;;;7.00;4.22;;;15.80;95.10;15.60;100881.00;;;;4877574;28;94562;-65
2022/11/14 10:11:37;;;;;;;8.40;4.75;;;15.70;93.90;15.60;100876.00;;;;4876380;28;93269;-65
2022/11/14 10:14:39;;;;;;;6.60;4.55;;;15.50;94.50;15.40;100875.00;;;;4879975;28;92131;-64
2022/11/14 10:17:54;;;;;;;9.07;4.40;;;15.40;93.30;15.10;100883.00;;;;4879802;28;92973;-64
2022/11/14 10:20:38;;;;;;;8.33;4.07;;;15.10;92.40;14.80;100876.00;;;;4878675;28;92997;-64
2022/11/14 10:23:44;;;;;;;8.18;5.55;;;14.80;92.90;14.80;100860.00;;;;4891984;28;93981;-65
2022/11/14 10:26:29;;;;;;;6.40;5.40;;;14.80;93.70;14.90;100869.00;;;;4879433;28;93730;-65
2022/11/14 10:29:30;;;;;;;9.15;4.90;;;14.80;93.10;14.90;100863.00;;;;4882416;28;92887;-64
2022/11/14 10:32:34;;;;;;;8.18;4.75;;;14.80;93.00;14.80;100861.00;;;;4885876;28;93387;-65
2022/11/14 10:35:10;;;;;;;6.00;4.60;;;14.80;92.70;14.80;100865.00;;;;4879026;28;93200;-65
2022/11/14 10:38:19;;;;;;;7.90;5.63;;;14.80;92.60;14.70;100861.00;;;;4880591;28;93697;-64
2022/11/14 10:40:52;;;;;;;13.00;6.32;;;14.70;92.20;14.50;100855.00;;;;4881890;28;92800;-65
2022/11/14 10:43:46;;;;;;;8.00;5.35;;;14.60;92.70;14.60;100857.00;;;;4892619;28;92162;-66
2022/11/14 10:46:33;;;;;;;7.85;4.65;;;14.50;93.10;14.60;100864.00;;;;4893941;28;92845;-64
2022/11/14 10:48:59;;;;;;;6.57;4.63;;;14.60;92.80;14.80;100862.00;;;;4882217;28;116285;-65
2022/11/14 10:51:38;;;;;;;9.70;5.53;;;14.60;93.20;15.00;100865.00;;;;4880770;28;93930;-63
2022/11/14 10:54:22;;;;;;;9.38;5.00;;;14.80;93.20;14.80;100853.00;;;;4897076;28;92792;-64
2022/11/14 10:56:53;;;;;;;11.10;5.75;;;14.80;91.90;14.80;100863.00;;;;4881201;28;92929;-63